Terminal Aerodrome Forecast
Issued by NWS

Home | Current Version | Previous Version | Text Only | Print | Product List | Glossary On
Versions: 1 2 3 4 5 6 7 8 9 10 11 12 13 14 15 16 17 18 19 20 21 22
000
FTUS43 KIND 241128
TAFLAF
TAF
KLAF 241128Z 2412/2512 28005KT P6SM VCSH OVC015
     FM241700 28009KT P6SM VCSH OVC015
     FM241900 28011KT P6SM BKN025
     FM242100 29010KT P6SM BKN035
     FM242300 28008KT P6SM BKN070
     FM250300 VRB03KT P6SM SCT110
      AMD LTD TO CLD VIS AND WIND TIL 241400=

USA.gov is the U.S. government's official web portal to all federal, state and local government web resources and services.